Time;durP1;ratioP1;P1;durP2;ratioP2;P2;SDS_P1;SDS_P2;PMS_P1;PMS_P2;Temp;Humidity;BMP_temperature;BMP_pressure;BME280_temperature;BME280_humidity;BME280_pressure;Samples;Min_cycle;Max_cycle;Signal;HPM_P1;HPM_P2
2023/05/24 00:02:14;;;;;;;14.98;4.97;;;;;;;;;;4969495;28;98941;-75
2023/05/24 00:04:40;;;;;;;9.07;3.80;;;;;;;;;;4968469;28;98271;-74
2023/05/24 00:07:09;;;;;;;17.48;3.67;;;;;;;;;;4961098;28;99398;-75
2023/05/24 00:09:36;;;;;;;18.77;4.00;;;;;;;;;;4968099;28;99669;-76
2023/05/24 00:12:05;;;;;;;16.40;4.18;;;;;;;;;;4969327;28;98322;-76
2023/05/24 00:14:31;;;;;;;15.15;4.15;;;;;;;;;;4966952;28;99872;-76
2023/05/24 00:16:57;;;;;;;8.60;3.47;;;;;;;;;;4972412;28;100091;-74
2023/05/24 00:19:28;;;;;;;20.20;4.97;;;;;;;;;;4969105;28;98777;-75
2023/05/24 00:21:54;;;;;;;12.52;3.97;;;;;;;;;;4968657;28;99898;-75
2023/05/24 00:24:21;;;;;;;10.68;3.38;;;;;;;;;;4964813;28;98249;-75
2023/05/24 00:26:48;;;;;;;12.00;4.13;;;;;;;;;;4970011;28;98885;-76
2023/05/24 00:29:15;;;;;;;13.65;4.05;;;;;;;;;;4967944;28;99664;-75
2023/05/24 00:31:41;;;;;;;14.68;4.00;;;;;;;;;;4961324;28;98277;-75
2023/05/24 00:34:09;;;;;;;12.20;3.35;;;;;;;;;;4967754;28;98442;-75
2023/05/24 00:36:37;;;;;;;16.88;4.53;;;;;;;;;;4967166;28;99237;-76
2023/05/24 00:39:03;;;;;;;20.45;5.10;;;;;;;;;;4972418;28;98688;-76
2023/05/24 00:41:29;;;;;;;12.68;4.10;;;;;;;;;;4972436;28;99299;-75
2023/05/24 00:43:56;;;;;;;15.70;4.43;;;;;;;;;;4966604;28;98252;-75
2023/05/24 00:46:30;;;;;;;12.52;4.35;;;;;;;;;;4967375;28;100656;-75
2023/05/24 00:48:57;;;;;;;13.43;3.72;;;;;;;;;;4967383;28;100393;-74
2023/05/24 00:51:26;;;;;;;8.27;3.33;;;;;;;;;;4969438;28;98248;-74
2023/05/24 00:53:53;;;;;;;18.80;4.18;;;;;;;;;;4967652;28;98272;-75
2023/05/24 00:56:20;;;;;;;13.57;4.18;;;;;;;;;;4967083;28;100297;-75
2023/05/24 00:58:49;;;;;;;17.45;3.92;;;;;;;;;;4959957;28;98230;-77
2023/05/24 01:01:16;;;;;;;20.15;5.43;;;;;;;;;;4969365;28;98481;-75
2023/05/24 01:03:44;;;;;;;25.95;4.15;;;;;;;;;;4968062;28;98541;-74
2023/05/24 01:06:12;;;;;;;18.80;4.53;;;;;;;;;;4950911;28;101013;-75
2023/05/24 01:08:38;;;;;;;22.25;5.07;;;;;;;;;;4967963;28;100351;-75
2023/05/24 01:11:20;;;;;;;22.60;4.15;;;;;;;;;;4964301;28;98991;-75
2023/05/24 01:13:48;;;;;;;;;;;;;;;;;;4968794;28;98935;-75
2023/05/24 01:16:16;;;;;;;15.98;4.45;;;;;;;;;;4964991;28;129495;-75
2023/05/24 01:18:46;;;;;;;16.95;4.40;;;;;;;;;;4966174;28;98620;-74
2023/05/24 01:21:24;;;;;;;19.83;5.15;;;;;;;;;;4974136;28;98335;-75
2023/05/24 01:24:03;;;;;;;16.80;4.50;;;;;;;;;;4974135;28;98596;-76
2023/05/24 01:26:38;;;;;;;16.42;4.00;;;;;;;;;;4962724;28;98107;-74
2023/05/24 01:29:05;;;;;;;15.68;4.53;;;;;;;;;;4967983;28;99442;-74
2023/05/24 01:31:34;;;;;;;18.10;4.53;;;;;;;;;;4967233;28;99336;-74
2023/05/24 01:34:05;;;;;;;27.75;4.72;;;;;;;;;;4967816;28;98951;-76
2023/05/24 01:36:31;;;;;;;14.20;3.80;;;;;;;;;;4958637;28;99305;-76
2023/05/24 01:38:58;;;;;;;23.80;4.68;;;;;;;;;;4967963;28;98644;-76
2023/05/24 01:41:33;;;;;;;20.15;4.88;;;;;;;;;;4968603;28;98244;-75
2023/05/24 01:44:17;;;;;;;25.98;4.90;;;;;;;;;;4968448;28;101269;-75
2023/05/24 01:46:46;;;;;;;22.85;4.97;;;;;;;;;;4961984;28;99262;-75
2023/05/24 01:49:19;;;;;;;25.35;6.25;;;;;;;;;;4967315;28;100393;-75
2023/05/24 01:51:58;;;;;;;33.92;6.25;;;;;;;;;;4966447;28;98677;-75
2023/05/24 01:54:30;;;;;;;18.45;5.40;;;;;;;;;;4967780;28;98730;-74
2023/05/24 01:56:58;;;;;;;23.80;4.90;;;;;;;;;;4967848;28;98808;-75
2023/05/24 01:59:27;;;;;;;18.27;4.53;;;;;;;;;;4964902;28;98315;-74
2023/05/24 02:01:54;;;;;;;15.80;4.50;;;;;;;;;;4968081;28;98358;-75
2023/05/24 02:04:20;;;;;;;22.98;4.63;;;;;;;;;;4967354;28;99465;-75
2023/05/24 02:06:47;;;;;;;21.23;4.97;;;;;;;;;;4968933;28;98316;-74
2023/05/24 02:09:13;;;;;;;19.17;5.10;;;;;;;;;;4967147;28;98816;-76
2023/05/24 02:11:40;;;;;;;22.00;6.05;;;;;;;;;;4959824;28;98197;-74
2023/05/24 02:14:07;;;;;;;18.35;4.95;;;;;;;;;;4965237;28;98369;-75
2023/05/24 02:16:41;;;;;;;29.35;5.28;;;;;;;;;;4965630;28;99934;-74
2023/05/24 02:19:08;;;;;;;21.58;4.75;;;;;;;;;;4962245;28;98298;-76
2023/05/24 02:21:40;;;;;;;19.90;5.57;;;;;;;;;;4967091;28;98358;-74
2023/05/24 02:24:11;;;;;;;16.73;4.38;;;;;;;;;;4964768;28;99934;-76
2023/05/24 02:26:37;;;;;;;22.83;5.75;;;;;;;;;;4964768;28;99114;-75
2023/05/24 02:29:05;;;;;;;29.58;5.15;;;;;;;;;;4957437;28;98504;-76
2023/05/24 02:31:32;;;;;;;34.28;6.53;;;;;;;;;;4968395;28;98055;-74
2023/05/24 02:34:02;;;;;;;23.23;5.38;;;;;;;;;;4968876;28;98978;-75
2023/05/24 02:36:31;;;;;;;22.50;6.18;;;;;;;;;;4969836;28;100669;-75
2023/05/24 02:38:57;;;;;;;24.65;5.90;;;;;;;;;;4970111;28;98026;-76
2023/05/24 02:41:25;;;;;;;24.27;6.00;;;;;;;;;;4971922;28;100452;-76
2023/05/24 02:43:52;;;;;;;23.58;6.78;;;;;;;;;;4968903;28;101064;-75
2023/05/24 02:46:19;;;;;;;27.55;6.57;;;;;;;;;;4969319;28;98449;-76
2023/05/24 02:48:45;;;;;;;23.00;6.30;;;;;;;;;;4969786;28;98402;-75
2023/05/24 02:51:17;;;;;;;24.48;5.82;;;;;;;;;;4972321;28;101378;-76
2023/05/24 02:53:44;;;;;;;23.40;5.80;;;;;;;;;;4970626;28;99425;-75
2023/05/24 02:56:12;;;;;;;24.15;5.35;;;;;;;;;;4969874;28;98695;-75
2023/05/24 02:58:40;;;;;;;30.25;5.50;;;;;;;;;;4964478;28;99050;-76
2023/05/24 03:01:07;;;;;;;25.40;5.30;;;;;;;;;;4968887;28;100387;-75
2023/05/24 03:03:33;;;;;;;24.35;6.10;;;;;;;;;;4969266;28;98936;-74
2023/05/24 03:06:03;;;;;;;34.05;6.28;;;;;;;;;;4968829;28;98471;-75
2023/05/24 03:08:30;;;;;;;18.80;5.75;;;;;;;;;;4967914;28;101065;-75
2023/05/24 03:10:57;;;;;;;29.52;6.28;;;;;;;;;;4967781;28;99062;-75
2023/05/24 03:13:24;;;;;;;33.25;6.30;;;;;;;;;;4973257;28;98461;-74
2023/05/24 03:15:50;;;;;;;24.70;7.05;;;;;;;;;;4969892;28;98734;-74
2023/05/24 03:18:17;;;;;;;24.50;6.07;;;;;;;;;;4971322;28;98668;-76
2023/05/24 03:20:44;;;;;;;24.75;5.18;;;;;;;;;;4970339;28;100617;-75
2023/05/24 03:23:11;;;;;;;26.40;5.80;;;;;;;;;;4971261;28;101620;-75
2023/05/24 03:25:39;;;;;;;29.30;5.95;;;;;;;;;;4971005;28;98556;-75
2023/05/24 03:28:06;;;;;;;29.98;6.80;;;;;;;;;;4986106;28;102352;-75
2023/05/24 03:30:32;;;;;;;28.63;5.95;;;;;;;;;;4949894;28;101721;-75
2023/05/24 03:33:00;;;;;;;24.42;6.20;;;;;;;;;;4958362;28;98258;-75
2023/05/24 03:35:31;;;;;;;36.83;8.85;;;;;;;;;;4966835;28;101588;-75
2023/05/24 03:38:05;;;;;;;23.95;6.05;;;;;;;;;;4970114;28;98097;-74
2023/05/24 03:40:35;;;;;;;27.33;6.32;;;;;;;;;;4977640;28;100508;-75
2023/05/24 03:43:15;;;;;;;21.85;5.88;;;;;;;;;;4962303;28;102717;-74
2023/05/24 03:45:48;;;;;;;20.17;5.30;;;;;;;;;;4970235;28;98256;-74
2023/05/24 03:48:14;;;;;;;40.03;6.55;;;;;;;;;;4970205;28;98256;-75
2023/05/24 03:50:41;;;;;;;24.13;6.40;;;;;;;;;;4968560;28;100005;-75
2023/05/24 03:53:08;;;;;;;25.30;6.55;;;;;;;;;;4966718;28;98647;-75
2023/05/24 03:55:34;;;;;;;23.83;6.05;;;;;;;;;;4971111;28;98690;-75
2023/05/24 03:58:03;;;;;;;28.50;5.90;;;;;;;;;;4966941;28;98296;-73
2023/05/24 04:00:30;;;;;;;27.95;6.10;;;;;;;;;;4967571;28;100381;-75
2023/05/24 04:03:00;;;;;;;31.73;5.68;;;;;;;;;;4967986;28;98941;-75
2023/05/24 04:05:28;;;;;;;24.15;6.03;;;;;;;;;;4967096;28;98223;-74
2023/05/24 04:07:55;;;;;;;22.75;5.43;;;;;;;;;;4967547;28;101053;-76
2023/05/24 04:10:22;;;;;;;26.48;6.40;;;;;;;;;;4966453;28;100966;-75
2023/05/24 04:12:48;;;;;;;25.42;7.25;;;;;;;;;;4962638;28;98334;-75
2023/05/24 04:15:15;;;;;;;26.83;6.30;;;;;;;;;;4970571;28;99763;-74
2023/05/24 04:17:42;;;;;;;26.15;6.53;;;;;;;;;;4971029;28;101695;-75
2023/05/24 04:20:10;;;;;;;19.75;6.05;;;;;;;;;;4968859;28;98570;-74
2023/05/24 04:22:37;;;;;;;29.92;5.20;;;;;;;;;;4968860;28;98893;-74
2023/05/24 04:25:05;;;;;;;19.23;5.03;;;;;;;;;;4967500;28;98236;-74
2023/05/24 04:27:36;;;;;;;30.00;8.05;;;;;;;;;;4966809;28;99423;-76
2023/05/24 04:30:02;;;;;;;23.73;4.82;;;;;;;;;;4967623;28;101574;-74
2023/05/24 04:32:30;;;;;;;28.98;6.18;;;;;;;;;;4963511;28;98304;-74
2023/05/24 04:34:57;;;;;;;22.58;5.82;;;;;;;;;;4966756;28;101075;-76
2023/05/24 04:37:23;;;;;;;24.38;5.32;;;;;;;;;;4965734;28;100808;-76
2023/05/24 04:39:51;;;;;;;26.30;5.80;;;;;;;;;;4971058;28;98477;-74
2023/05/24 04:42:21;;;;;;;26.42;4.93;;;;;;;;;;4967812;28;99945;-75
2023/05/24 04:44:48;;;;;;;27.25;6.30;;;;;;;;;;4967184;28;99187;-74
2023/05/24 04:47:16;;;;;;;21.63;5.70;;;;;;;;;;4968134;28;99859;-74
2023/05/24 04:49:42;;;;;;;19.75;5.18;;;;;;;;;;4968524;28;100138;-75
2023/05/24 04:52:09;;;;;;;24.52;6.65;;;;;;;;;;4968814;28;98247;-76
2023/05/24 04:54:36;;;;;;;43.65;7.80;;;;;;;;;;4965359;28;99724;-75
2023/05/24 04:57:02;;;;;;;18.27;5.18;;;;;;;;;;4967677;28;99944;-75
2023/05/24 04:59:29;;;;;;;23.80;6.03;;;;;;;;;;4962750;28;98609;-75
2023/05/24 05:01:56;;;;;;;24.45;6.20;;;;;;;;;;4970099;28;99364;-75
2023/05/24 05:04:22;;;;;;;29.50;5.93;;;;;;;;;;4960054;28;98315;-75
2023/05/24 05:06:49;;;;;;;25.60;5.93;;;;;;;;;;4968431;28;99610;-75
2023/05/24 05:09:16;;;;;;;21.35;5.13;;;;;;;;;;4966501;28;99964;-75
2023/05/24 05:11:46;;;;;;;24.08;7.50;;;;;;;;;;4967476;28;98254;-75
2023/05/24 05:14:12;;;;;;;18.23;4.85;;;;;;;;;;4972575;28;99402;-74
2023/05/24 05:16:40;;;;;;;21.13;5.18;;;;;;;;;;4970376;28;100093;-75
2023/05/24 05:19:08;;;;;;;30.05;6.07;;;;;;;;;;4968661;28;98327;-75
2023/05/24 05:21:38;;;;;;;27.30;6.18;;;;;;;;;;4967635;28;99442;-74
2023/05/24 05:24:05;;;;;;;24.40;5.72;;;;;;;;;;4970254;28;98215;-74
2023/05/24 05:26:35;;;;;;;20.77;5.50;;;;;;;;;;4964439;28;98594;-74
2023/05/24 05:29:02;;;;;;;33.83;6.15;;;;;;;;;;4967936;28;100150;-74
2023/05/24 05:31:28;;;;;;;20.63;5.32;;;;;;;;;;4967391;28;98865;-74
2023/05/24 05:33:55;;;;;;;21.77;6.22;;;;;;;;;;4968093;28;99656;-74
2023/05/24 05:36:21;;;;;;;23.70;5.75;;;;;;;;;;4966264;28;98818;-74
2023/05/24 05:38:47;;;;;;;24.50;5.38;;;;;;;;;;4968050;28;98235;-74
2023/05/24 05:41:14;;;;;;;22.85;5.57;;;;;;;;;;4971474;28;99587;-74
2023/05/24 05:43:40;;;;;;;22.27;5.70;;;;;;;;;;4970087;28;99030;-75
2023/05/24 05:46:07;;;;;;;16.75;5.25;;;;;;;;;;4968156;28;99608;-75
2023/05/24 05:48:33;;;;;;;26.88;5.88;;;;;;;;;;4967076;28;99229;-74
2023/05/24 05:51:00;;;;;;;27.13;6.47;;;;;;;;;;4966678;28;99124;-74
2023/05/24 05:53:26;;;;;;;14.93;5.32;;;;;;;;;;4967762;28;99388;-74
2023/05/24 05:55:52;;;;;;;19.25;5.40;;;;;;;;;;4959911;28;99279;-74
2023/05/24 05:58:19;;;;;;;22.83;6.30;;;;;;;;;;4966558;28;98078;-74
2023/05/24 06:00:46;;;;;;;23.83;6.05;;;;;;;;;;4968087;28;99412;-74
2023/05/24 06:03:12;;;;;;;20.15;6.15;;;;;;;;;;4967957;28;100119;-74
2023/05/24 06:05:39;;;;;;;27.65;7.07;;;;;;;;;;4972658;28;98259;-74
2023/05/24 06:08:05;;;;;;;17.83;5.70;;;;;;;;;;4966599;28;100140;-74
2023/05/24 06:10:32;;;;;;;18.50;5.00;;;;;;;;;;4966645;28;98152;-74
2023/05/24 06:13:00;;;;;;;21.50;6.53;;;;;;;;;;4965676;28;99791;-75
2023/05/24 06:15:26;;;;;;;16.73;5.10;;;;;;;;;;4966806;28;99088;-73
2023/05/24 06:18:03;;;;;;;20.23;4.32;;;;;;;;;;4951615;28;98041;-74
2023/05/24 06:20:31;;;;;;;23.23;5.35;;;;;;;;;;4967093;28;99025;-74
2023/05/24 06:22:59;;;;;;;18.75;5.35;;;;;;;;;;4964909;28;101648;-74
2023/05/24 06:25:28;;;;;;;21.70;4.95;;;;;;;;;;4969345;28;98393;-74
2023/05/24 06:27:54;;;;;;;19.27;5.30;;;;;;;;;;4968847;28;99720;-75
2023/05/24 06:30:21;;;;;;;16.75;4.45;;;;;;;;;;4964180;28;98344;-75
2023/05/24 06:32:48;;;;;;;20.38;5.05;;;;;;;;;;4965539;28;98639;-74
2023/05/24 06:35:16;;;;;;;21.20;4.57;;;;;;;;;;4962854;28;100008;-75
2023/05/24 06:37:43;;;;;;;15.57;4.70;;;;;;;;;;4965939;28;98415;-75
2023/05/24 06:40:09;;;;;;;15.98;4.22;;;;;;;;;;4960139;28;98703;-77
2023/05/24 06:42:36;;;;;;;19.98;5.18;;;;;;;;;;4958153;28;101638;-73
2023/05/24 06:45:03;;;;;;;17.52;4.45;;;;;;;;;;4963359;28;98441;-76
2023/05/24 06:47:30;;;;;;;19.75;4.68;;;;;;;;;;4957122;28;99551;-74
2023/05/24 06:49:57;;;;;;;17.20;5.35;;;;;;;;;;4967008;28;100144;-73
2023/05/24 06:52:23;;;;;;;18.92;4.78;;;;;;;;;;4966771;28;100129;-74
2023/05/24 06:54:50;;;;;;;18.20;4.35;;;;;;;;;;4966528;28;100341;-74
2023/05/24 06:57:17;;;;;;;22.90;4.35;;;;;;;;;;4966963;28;98160;-73
2023/05/24 06:59:43;;;;;;;18.35;4.60;;;;;;;;;;4966695;28;99860;-74
2023/05/24 07:02:10;;;;;;;11.98;3.70;;;;;;;;;;4963447;28;100245;-73
2023/05/24 07:04:36;;;;;;;16.73;4.55;;;;;;;;;;4964887;28;98301;-74
2023/05/24 07:07:03;;;;;;;18.52;4.35;;;;;;;;;;4963578;28;100177;-73
2023/05/24 07:09:30;;;;;;;16.95;5.35;;;;;;;;;;4966455;28;98136;-73
2023/05/24 07:11:58;;;;;;;18.00;4.28;;;;;;;;;;4961485;28;98845;-72
2023/05/24 07:14:26;;;;;;;22.08;4.22;;;;;;;;;;4964281;28;98951;-73
2023/05/24 07:16:53;;;;;;;13.95;4.13;;;;;;;;;;4964334;28;98350;-74
2023/05/24 07:19:21;;;;;;;16.98;4.15;;;;;;;;;;4955402;28;99693;-74
2023/05/24 07:21:49;;;;;;;18.58;4.53;;;;;;;;;;4962412;28;100077;-73
2023/05/24 07:24:16;;;;;;;13.52;4.50;;;;;;;;;;4966609;28;99644;-73
2023/05/24 07:26:43;;;;;;;25.15;4.72;;;;;;;;;;4962845;28;99391;-74
2023/05/24 07:29:10;;;;;;;20.02;4.68;;;;;;;;;;4959335;28;99939;-73
2023/05/24 07:31:37;;;;;;;22.00;4.88;;;;;;;;;;4949951;28;98399;-73
2023/05/24 07:34:05;;;;;;;12.80;3.95;;;;;;;;;;4967160;28;99917;-73
2023/05/24 07:36:32;;;;;;;19.65;4.05;;;;;;;;;;4963610;28;100038;-72
2023/05/24 07:39:01;;;;;;;20.33;4.13;;;;;;;;;;4963373;28;99543;-74
2023/05/24 07:41:28;;;;;;;13.07;3.45;;;;;;;;;;4955880;28;99916;-75
2023/05/24 07:43:55;;;;;;;19.75;5.35;;;;;;;;;;4968595;28;98662;-75
2023/05/24 07:46:21;;;;;;;16.48;4.00;;;;;;;;;;4969169;28;98736;-75
2023/05/24 07:48:48;;;;;;;13.30;4.18;;;;;;;;;;4969296;28;98897;-73
2023/05/24 07:51:15;;;;;;;14.88;3.95;;;;;;;;;;4968397;28;98178;-74
2023/05/24 07:53:41;;;;;;;13.65;3.95;;;;;;;;;;4971931;28;99664;-74
2023/05/24 07:56:08;;;;;;;22.60;5.32;;;;;;;;;;4969098;28;98239;-73
2023/05/24 07:58:36;;;;;;;17.30;3.95;;;;;;;;;;4968360;28;98708;-74
2023/05/24 08:01:03;;;;;;;13.38;4.20;;;;;;;;;;4969509;28;100181;-74
2023/05/24 08:03:30;;;;;;;15.32;4.82;;;;;;;;;;4970148;28;98930;-74
2023/05/24 08:05:56;;;;;;;16.48;4.10;;;;;;;;;;4972232;28;99465;-74
2023/05/24 08:08:25;;;;;;;23.35;4.70;;;;;;;;;;4970490;28;100608;-74
2023/05/24 08:10:52;;;;;;;16.27;4.60;;;;;;;;;;4965824;28;98125;-74
2023/05/24 08:13:18;;;;;;;14.32;4.10;;;;;;;;;;4968284;28;99550;-74
2023/05/24 08:15:47;;;;;;;13.60;3.80;;;;;;;;;;4968949;28;99868;-74
2023/05/24 08:18:13;;;;;;;15.02;4.28;;;;;;;;;;4964591;28;99376;-74
2023/05/24 08:20:42;;;;;;;14.45;3.85;;;;;;;;;;4968832;28;100104;-75
2023/05/24 08:23:10;;;;;;;14.50;4.90;;;;;;;;;;4968990;28;98265;-75
2023/05/24 08:25:37;;;;;;;17.92;3.70;;;;;;;;;;4968542;28;98893;-75
2023/05/24 08:28:03;;;;;;;11.90;4.20;;;;;;;;;;4964371;28;100056;-74
2023/05/24 08:30:31;;;;;;;12.02;3.58;;;;;;;;;;4967655;28;98669;-75
2023/05/24 08:32:59;;;;;;;11.30;3.92;;;;;;;;;;4968101;28;99607;-75
2023/05/24 08:35:26;;;;;;;14.23;3.88;;;;;;;;;;4968162;28;98360;-75
2023/05/24 08:37:55;;;;;;;13.93;4.55;;;;;;;;;;4972223;28;98311;-75
2023/05/24 08:40:23;;;;;;;12.02;4.22;;;;;;;;;;4966586;28;100455;-75
2023/05/24 08:42:51;;;;;;;15.20;4.22;;;;;;;;;;4968213;28;98337;-75
2023/05/24 08:45:19;;;;;;;12.27;3.60;;;;;;;;;;4968456;28;99624;-75
2023/05/24 08:47:46;;;;;;;12.75;3.70;;;;;;;;;;4960672;28;98884;-75
2023/05/24 08:50:14;;;;;;;14.57;3.78;;;;;;;;;;4968705;28;98876;-75
2023/05/24 08:52:41;;;;;;;11.10;3.50;;;;;;;;;;4968658;28;99139;-75
2023/05/24 08:55:08;;;;;;;12.13;3.50;;;;;;;;;;4968380;28;99750;-77
2023/05/24 08:57:39;;;;;;;16.65;4.68;;;;;;;;;;4957703;28;99624;-75
2023/05/24 09:00:08;;;;;;;13.50;3.67;;;;;;;;;;4973228;28;98502;-75
2023/05/24 09:02:35;;;;;;;13.10;4.18;;;;;;;;;;4974818;28;98742;-75
2023/05/24 09:05:01;;;;;;;11.43;3.78;;;;;;;;;;4975279;28;99192;-75
2023/05/24 09:07:28;;;;;;;10.02;3.40;;;;;;;;;;4966822;28;99196;-74
2023/05/24 09:10:05;;;;;;;16.65;4.00;;;;;;;;;;4967750;28;98985;-74
2023/05/24 09:12:33;;;;;;;15.60;4.53;;;;;;;;;;4967627;28;98562;-75
2023/05/24 09:15:04;;;;;;;12.57;3.53;;;;;;;;;;4967640;28;98935;-74
2023/05/24 09:17:35;;;;;;;11.20;3.67;;;;;;;;;;4967560;28;98248;-74
2023/05/24 09:20:05;;;;;;;19.75;4.30;;;;;;;;;;4968461;28;99464;-75
2023/05/24 09:22:33;;;;;;;8.93;3.40;;;;;;;;;;4970211;28;99828;-75
2023/05/24 09:25:03;;;;;;;10.98;3.83;;;;;;;;;;4968910;28;100843;-77
2023/05/24 09:27:31;;;;;;;10.23;3.25;;;;;;;;;;4966417;28;99080;-76
2023/05/24 09:29:57;;;;;;;8.88;3.45;;;;;;;;;;4960484;28;98367;-76
2023/05/24 09:32:25;;;;;;;13.48;4.35;;;;;;;;;;4958946;28;98487;-75
2023/05/24 09:34:57;;;;;;;12.77;4.10;;;;;;;;;;4963640;28;99873;-75
2023/05/24 09:37:26;;;;;;;12.95;4.00;;;;;;;;;;4963393;28;98260;-76
2023/05/24 09:39:58;;;;;;;11.77;3.97;;;;;;;;;;4960656;28;98662;-77
2023/05/24 09:42:27;;;;;;;10.95;3.47;;;;;;;;;;4969367;28;98879;-76
2023/05/24 09:45:08;;;;;;;12.13;4.32;;;;;;;;;;4967327;28;98952;-75
2023/05/24 09:47:35;;;;;;;12.55;4.10;;;;;;;;;;4965907;28;99956;-75
2023/05/24 09:50:05;;;;;;;10.57;3.95;;;;;;;;;;4967498;28;98534;-75
2023/05/24 09:52:35;;;;;;;10.55;4.00;;;;;;;;;;4963188;28;98508;-76
2023/05/24 09:55:12;;;;;;;15.70;3.88;;;;;;;;;;4960321;28;98963;-75
2023/05/24 09:57:38;;;;;;;10.40;3.75;;;;;;;;;;4968430;28;98255;-75
2023/05/24 10:00:20;;;;;;;10.43;3.45;;;;;;;;;;4970369;28;99601;-76
2023/05/24 10:02:58;;;;;;;12.13;3.37;;;;;;;;;;4969547;28;99928;-76
2023/05/24 10:05:25;;;;;;;18.48;4.40;;;;;;;;;;4974915;28;98163;-75
2023/05/24 10:07:52;;;;;;;12.20;3.63;;;;;;;;;;4967310;28;100087;-75
2023/05/24 10:10:20;;;;;;;9.68;3.58;;;;;;;;;;4947263;28;98255;-75
2023/05/24 10:12:47;;;;;;;15.80;4.57;;;;;;;;;;4944679;28;99441;-74
2023/05/24 10:15:14;;;;;;;10.38;4.10;;;;;;;;;;4944288;28;99952;-75
2023/05/24 10:17:41;;;;;;;12.90;3.72;;;;;;;;;;4942949;28;98569;-75
2023/05/24 10:20:11;;;;;;;103.13;47.47;;;;;;;;;;4946078;28;99475;-75
2023/05/24 10:22:45;;;;;;;15.73;4.43;;;;;;;;;;4946211;28;99940;-75
2023/05/24 10:25:15;;;;;;;13.25;4.53;;;;;;;;;;4939664;28;98170;-75
2023/05/24 10:27:44;;;;;;;21.70;6.60;;;;;;;;;;4947766;28;98648;-75
2023/05/24 10:30:19;;;;;;;16.52;5.80;;;;;;;;;;4945833;28;98401;-75
2023/05/24 10:32:46;;;;;;;11.73;4.05;;;;;;;;;;4940535;28;99624;-74
2023/05/24 10:35:17;;;;;;;12.63;3.72;;;;;;;;;;4947890;28;101522;-75
2023/05/24 10:37:44;;;;;;;9.63;3.53;;;;;;;;;;4947772;28;98730;-74
2023/05/24 10:40:19;;;;;;;8.65;3.17;;;;;;;;;;4937976;28;98683;-74
2023/05/24 10:42:48;;;;;;;12.52;3.00;;;;;;;;;;4946024;28;99904;-75
2023/05/24 10:45:24;;;;;;;13.90;3.65;;;;;;;;;;4946246;28;98389;-75
2023/05/24 10:47:53;;;;;;;13.18;3.67;;;;;;;;;;4938053;28;98634;-75
2023/05/24 10:50:24;;;;;;;9.68;3.20;;;;;;;;;;4883601;28;98986;-75
2023/05/24 10:53:03;;;;;;;12.60;3.65;;;;;;;;;;4936032;28;99562;-75
2023/05/24 10:55:32;;;;;;;7.55;3.38;;;;;;;;;;4940266;28;98889;-75
2023/05/24 10:58:04;;;;;;;10.75;3.30;;;;;;;;;;4943658;28;98892;-75
2023/05/24 11:00:34;;;;;;;11.00;4.33;;;;;;;;;;4950788;28;99963;-74
2023/05/24 11:03:02;;;;;;;8.65;3.45;;;;;;;;;;4950763;28;99954;-75
2023/05/24 11:05:34;;;;;;;6.93;2.88;;;;;;;;;;4946167;28;98213;-75
2023/05/24 11:08:02;;;;;;;10.05;2.88;;;;;;;;;;4947233;28;99581;-76
2023/05/24 11:10:30;;;;;;;8.52;2.70;;;;;;;;;;4967066;28;100066;-76
2023/05/24 11:13:03;;;;;;;8.27;2.70;;;;;;;;;;4967424;28;98354;-75
2023/05/24 11:15:30;;;;;;;10.93;2.97;;;;;;;;;;4967389;28;100342;-76
2023/05/24 11:18:05;;;;;;;12.35;4.30;;;;;;;;;;4970174;28;98299;-74
2023/05/24 11:20:32;;;;;;;8.07;3.15;;;;;;;;;;4958062;28;99111;-76
2023/05/24 11:22:59;;;;;;;9.05;3.30;;;;;;;;;;4965909;28;99379;-74
2023/05/24 11:25:26;;;;;;;11.23;3.20;;;;;;;;;;4963475;28;99110;-76
2023/05/24 11:27:52;;;;;;;16.23;6.47;;;;;;;;;;4973330;28;99382;-75
2023/05/24 11:30:21;;;;;;;12.07;5.22;;;;;;;;;;4961110;28;99228;-74
2023/05/24 11:32:47;;;;;;;7.95;2.65;;;;;;;;;;4968655;28;98240;-74
2023/05/24 11:35:14;;;;;;;13.38;4.15;;;;;;;;;;4972409;28;99547;-78
2023/05/24 11:37:44;;;;;;;13.18;3.25;;;;;;;;;;4967811;28;98248;-77
2023/05/24 11:40:12;;;;;;;8.23;3.13;;;;;;;;;;4963566;28;99511;-75
2023/05/24 11:42:40;;;;;;;12.43;3.83;;;;;;;;;;4964282;28;99039;-75
2023/05/24 11:45:08;;;;;;;11.68;3.58;;;;;;;;;;4969779;28;98277;-76
2023/05/24 11:47:38;;;;;;;11.10;3.17;;;;;;;;;;4968985;28;100199;-76
2023/05/24 11:50:05;;;;;;;14.32;3.42;;;;;;;;;;4969085;28;99230;-76
2023/05/24 11:52:36;;;;;;;13.55;3.40;;;;;;;;;;4970581;28;98233;-74
2023/05/24 11:55:03;;;;;;;7.00;2.78;;;;;;;;;;4975800;28;98628;-74
2023/05/24 11:57:38;;;;;;;9.80;3.15;;;;;;;;;;4969204;28;98943;-75
2023/05/24 12:00:09;;;;;;;10.15;3.55;;;;;;;;;;4962203;28;99439;-76
2023/05/24 12:02:39;;;;;;;12.40;3.38;;;;;;;;;;4968310;28;100134;-75
2023/05/24 12:05:08;;;;;;;10.88;2.78;;;;;;;;;;4968164;28;98334;-74
2023/05/24 12:07:39;;;;;;;7.78;2.47;;;;;;;;;;4969342;28;99431;-75
2023/05/24 12:10:08;;;;;;;6.70;2.95;;;;;;;;;;4961121;28;100102;-77
2023/05/24 12:12:41;;;;;;;9.05;3.00;;;;;;;;;;4969180;28;98294;-77
2023/05/24 12:15:13;;;;;;;14.40;3.67;;;;;;;;;;4962034;28;99586;-74
2023/05/24 12:17:40;;;;;;;11.77;3.47;;;;;;;;;;4971375;28;100455;-76
2023/05/24 12:20:08;;;;;;;13.18;3.28;;;;;;;;;;4969376;28;99996;-75
2023/05/24 12:22:35;;;;;;;10.82;3.58;;;;;;;;;;4968501;28;100754;-77
2023/05/24 12:25:02;;;;;;;9.50;3.63;;;;;;;;;;4968260;28;99039;-74
2023/05/24 12:27:30;;;;;;;14.45;3.88;;;;;;;;;;4967969;28;99874;-75
2023/05/24 12:30:05;;;;;;;10.38;3.28;;;;;;;;;;4968339;28;100242;-76
2023/05/24 12:32:31;;;;;;;8.32;3.30;;;;;;;;;;4967987;28;98914;-75
2023/05/24 12:34:57;;;;;;;10.40;3.25;;;;;;;;;;4968879;28;99825;-75
2023/05/24 12:37:24;;;;;;;10.82;3.22;;;;;;;;;;4968424;28;100330;-76
2023/05/24 12:39:51;;;;;;;9.60;3.47;;;;;;;;;;4971793;28;98525;-76
2023/05/24 12:42:22;;;;;;;9.73;3.10;;;;;;;;;;4969013;28;100031;-76
2023/05/24 12:44:51;;;;;;;12.63;3.78;;;;;;;;;;4969649;28;98339;-76
2023/05/24 12:47:19;;;;;;;16.83;4.15;;;;;;;;;;4966811;28;98645;-76
2023/05/24 12:49:47;;;;;;;12.00;4.22;;;;;;;;;;4969250;28;99560;-76
2023/05/24 12:52:14;;;;;;;12.30;4.30;;;;;;;;;;4968847;28;98266;-76
2023/05/24 12:54:45;;;;;;;14.20;3.55;;;;;;;;;;4964091;28;99364;-77
2023/05/24 12:57:12;;;;;;;14.27;3.50;;;;;;;;;;4959789;28;100406;-76
2023/05/24 12:59:40;;;;;;;15.02;4.03;;;;;;;;;;4964102;28;98365;-75
2023/05/24 13:02:08;;;;;;;9.57;3.47;;;;;;;;;;4968709;28;99090;-77
2023/05/24 13:04:37;;;;;;;10.25;4.00;;;;;;;;;;4966056;28;99506;-75
2023/05/24 13:07:04;;;;;;;12.30;4.20;;;;;;;;;;4961774;28;99556;-76
2023/05/24 13:09:34;;;;;;;9.15;3.90;;;;;;;;;;4964268;28;100288;-75
2023/05/24 13:12:03;;;;;;;8.85;3.10;;;;;;;;;;4965325;28;99831;-76
2023/05/24 13:14:31;;;;;;;13.07;3.65;;;;;;;;;;4958475;28;98549;-76
2023/05/24 13:16:59;;;;;;;8.18;3.83;;;;;;;;;;4965597;28;98979;-75
2023/05/24 13:19:26;;;;;;;10.23;3.75;;;;;;;;;;4965068;28;98325;-77
2023/05/24 13:21:55;;;;;;;8.65;3.45;;;;;;;;;;4964829;28;99728;-75
2023/05/24 13:24:22;;;;;;;13.00;3.33;;;;;;;;;;4962705;28;99486;-75
2023/05/24 13:26:48;;;;;;;9.52;3.33;;;;;;;;;;4962923;28;98221;-77
2023/05/24 13:29:21;;;;;;;5.10;3.13;;;;;;;;;;4962687;28;99954;-77
2023/05/24 13:32:05;;;;;;;14.95;3.45;;;;;;;;;;4963038;28;99893;-76
2023/05/24 13:34:32;;;;;;;11.23;3.42;;;;;;;;;;4972355;28;99555;-76
2023/05/24 13:36:59;;;;;;;14.02;3.22;;;;;;;;;;4958982;28;99415;-76
2023/05/24 13:39:26;;;;;;;8.25;3.00;;;;;;;;;;4968142;28;99307;-75
2023/05/24 13:41:55;;;;;;;7.80;2.88;;;;;;;;;;4954158;28;99930;-75
2023/05/24 13:44:21;;;;;;;9.45;4.15;;;;;;;;;;4972013;28;100097;-76
2023/05/24 13:46:48;;;;;;;7.97;2.97;;;;;;;;;;4977629;28;98551;-76
2023/05/24 13:49:15;;;;;;;9.05;3.13;;;;;;;;;;4966692;28;99953;-75
2023/05/24 13:51:41;;;;;;;3.42;2.55;;;;;;;;;;4958499;28;98378;-75
2023/05/24 13:54:10;;;;;;;13.35;3.80;;;;;;;;;;4967876;28;99385;-75
2023/05/24 13:56:37;;;;;;;10.55;3.50;;;;;;;;;;4962576;28;100091;-76
2023/05/24 13:59:05;;;;;;;13.23;4.22;;;;;;;;;;4963002;28;98249;-75
2023/05/24 14:01:32;;;;;;;13.38;3.45;;;;;;;;;;4963981;28;99475;-74
2023/05/24 14:04:01;;;;;;;10.63;3.60;;;;;;;;;;4964138;28;98933;-74
2023/05/24 14:06:27;;;;;;;9.32;2.55;;;;;;;;;;4962922;28;98295;-75
2023/05/24 14:08:58;;;;;;;13.32;3.65;;;;;;;;;;4965229;28;99587;-75
2023/05/24 14:11:30;;;;;;;10.02;3.55;;;;;;;;;;4967380;28;98369;-74
2023/05/24 14:13:57;;;;;;;12.40;3.42;;;;;;;;;;4952113;28;101132;-73
2023/05/24 14:16:28;;;;;;;7.18;3.08;;;;;;;;;;4961331;28;99932;-74
2023/05/24 14:18:57;;;;;;;8.75;3.35;;;;;;;;;;4950090;28;98356;-74
2023/05/24 14:21:25;;;;;;;10.43;3.70;;;;;;;;;;4956708;28;99374;-74
2023/05/24 14:23:52;;;;;;;10.57;3.28;;;;;;;;;;4951047;28;100000;-74
2023/05/24 14:26:20;;;;;;;7.18;2.78;;;;;;;;;;4958383;28;98343;-74
2023/05/24 14:28:47;;;;;;;10.48;2.92;;;;;;;;;;4969212;28;99207;-74
2023/05/24 14:31:13;;;;;;;12.77;3.40;;;;;;;;;;4968888;28;98798;-75
2023/05/24 14:33:41;;;;;;;12.68;3.13;;;;;;;;;;4968848;28;98834;-75
2023/05/24 14:36:08;;;;;;;12.73;3.60;;;;;;;;;;4961191;28;100086;-75